createdAt,value
2018-11-07T00:00:38.016Z,3.8
2018-11-07T00:01:38.444Z,3.7
2018-11-07T00:02:38.463Z,4.5
2018-11-07T00:03:38.479Z,5.1
2018-11-07T00:04:38.373Z,4.7
2018-11-07T00:05:38.368Z,4.2
2018-11-07T00:06:38.017Z,4.3
2018-11-07T00:07:38.396Z,4.8
2018-11-07T00:08:38.072Z,4.2
2018-11-07T00:09:38.490Z,3.9
2018-11-07T00:10:38.514Z,5.6
2018-11-07T00:11:38.047Z,4.4
2018-11-07T00:12:38.046Z,4.4
2018-11-07T00:13:38.419Z,5.1
2018-11-07T00:14:38.477Z,4.2
2018-11-07T00:15:37.998Z,4.2
2018-11-07T00:16:38.187Z,4.8
2018-11-07T00:17:38.178Z,4.7
2018-11-07T00:18:38.211Z,4.1
2018-11-07T00:19:38.301Z,4.3
2018-11-07T00:20:38.404Z,4.4
2018-11-07T00:21:38.220Z,4.2
2018-11-07T00:22:38.207Z,4.5
2018-11-07T00:23:38.220Z,4.9
2018-11-07T00:24:38.011Z,4.5
2018-11-07T00:25:38.516Z,4.3
2018-11-07T00:26:38.491Z,4.5
2018-11-07T00:27:38.513Z,4.6
2018-11-07T00:28:38.536Z,4.7
2018-11-07T00:29:38.502Z,4.8
2018-11-07T00:30:38.495Z,4.7
2018-11-07T00:31:38.261Z,4.6
2018-11-07T00:32:38.445Z,4.3
2018-11-07T00:33:38.198Z,4.6
2018-11-07T00:34:38.519Z,4.8
2018-11-07T00:35:38.522Z,4.4
2018-11-07T00:36:38.264Z,4.9
2018-11-07T00:37:38.133Z,4.4
2018-11-07T00:38:38.540Z,4.6
2018-11-07T00:39:38.529Z,4.5
2018-11-07T00:40:38.080Z,4.8
2018-11-07T00:41:38.234Z,4.7
2018-11-07T00:42:38.048Z,5.1
2018-11-07T00:43:38.456Z,4.4
2018-11-07T00:44:38.542Z,4.7
2018-11-07T00:45:38.522Z,5.4
2018-11-07T00:46:38.502Z,4.8
2018-11-07T00:47:38.034Z,4.6
2018-11-07T00:48:38.046Z,4.4
2018-11-07T00:49:38.097Z,4.6
2018-11-07T00:50:38.252Z,4.9
2018-11-07T00:51:38.614Z,5.0
2018-11-07T00:52:38.529Z,4.8
2018-11-07T00:53:38.081Z,4.8
2018-11-07T00:54:39.431Z,4.6
2018-11-07T00:55:38.663Z,4.9
2018-11-07T00:56:38.063Z,5.0
2018-11-07T00:57:38.064Z,4.9
2018-11-07T00:58:38.283Z,4.8
2018-11-07T00:59:38.601Z,5.1
2018-11-07T01:00:38.577Z,4.7
2018-11-07T01:01:38.536Z,4.8
2018-11-07T01:02:38.527Z,4.9
2018-11-07T01:03:38.282Z,4.7
2018-11-07T01:04:38.079Z,4.6
2018-11-07T01:05:38.287Z,4.5
2018-11-07T01:06:39.193Z,4.4
2018-11-07T01:07:38.101Z,4.6
2018-11-07T01:08:39.321Z,5.2
2018-11-07T01:09:38.765Z,4.6
2018-11-07T01:10:40.885Z,4.9
2018-11-07T01:11:38.546Z,4.5
2018-11-07T01:12:38.150Z,4.6
2018-11-07T01:13:38.124Z,4.8
2018-11-07T01:14:38.286Z,4.7
2018-11-07T01:15:38.494Z,4.1
2018-11-07T01:16:38.356Z,4.5
2018-11-07T01:17:38.619Z,4.6
2018-11-07T01:18:38.646Z,4.8
2018-11-07T01:19:38.594Z,4.6
2018-11-07T01:20:38.285Z,5.0
2018-11-07T01:21:38.742Z,4.1
2018-11-07T01:22:38.617Z,4.4
2018-11-07T01:23:38.258Z,4.6
2018-11-07T01:24:38.555Z,4.4
2018-11-07T01:25:38.630Z,4.4
2018-11-07T01:26:38.523Z,4.6
2018-11-07T01:27:38.641Z,4.4
2018-11-07T01:28:38.665Z,4.5
2018-11-07T01:29:38.384Z,4.5
2018-11-07T01:30:38.164Z,4.9
2018-11-07T01:31:38.236Z,4.3
2018-11-07T01:32:38.702Z,4.5
2018-11-07T01:33:38.631Z,4.3
2018-11-07T01:34:38.198Z,4.5
2018-11-07T01:35:38.521Z,4.4
2018-11-07T01:36:38.650Z,4.4
2018-11-07T01:37:38.715Z,3.9
2018-11-07T01:38:38.582Z,4.3
2018-11-07T01:39:38.167Z,3.6
2018-11-07T01:40:38.345Z,3.8
2018-11-07T01:41:38.317Z,4.3
2018-11-07T01:42:38.193Z,3.7
2018-11-07T01:43:38.658Z,4.1
2018-11-07T01:44:38.352Z,3.8
2018-11-07T01:45:38.671Z,4.2
2018-11-07T01:46:38.126Z,3.8
2018-11-07T01:47:38.733Z,4.0
2018-11-07T01:48:38.586Z,3.7
2018-11-07T01:49:38.568Z,3.7
2018-11-07T01:50:38.324Z,3.7
2018-11-07T01:51:38.221Z,3.9
2018-11-07T01:52:38.425Z,3.8
2018-11-07T01:53:38.337Z,3.7
2018-11-07T01:54:38.150Z,3.7
2018-11-07T01:55:38.683Z,3.6
2018-11-07T01:56:38.762Z,3.7
2018-11-07T01:57:38.729Z,3.8
2018-11-07T01:58:38.446Z,3.7
2018-11-07T01:59:38.631Z,3.2
2018-11-07T02:00:38.647Z,3.5
2018-11-07T02:01:38.383Z,3.4
2018-11-07T02:02:38.599Z,4.1
2018-11-07T02:03:38.657Z,3.0
2018-11-07T02:04:38.193Z,3.2
2018-11-07T02:05:38.619Z,3.3
2018-11-07T02:06:38.635Z,3.1
2018-11-07T02:07:38.710Z,3.1
2018-11-07T02:08:38.760Z,3.1
2018-11-07T02:09:38.690Z,3.2
2018-11-07T02:10:38.464Z,3.2
2018-11-07T02:11:38.416Z,3.2
2018-11-07T02:12:38.688Z,3.3
2018-11-07T02:13:38.400Z,3.1
2018-11-07T02:14:38.679Z,3.2
2018-11-07T02:15:38.697Z,3.0
2018-11-07T02:16:38.711Z,3.4
2018-11-07T02:17:38.373Z,3.1
2018-11-07T02:18:38.766Z,3.4
2018-11-07T02:19:38.690Z,3.4
2018-11-07T02:20:38.794Z,3.3
2018-11-07T02:21:38.761Z,3.2
2018-11-07T02:22:38.488Z,3.0
2018-11-07T02:23:38.775Z,3.0
2018-11-07T02:24:38.672Z,3.5
2018-11-07T02:25:38.674Z,3.4
2018-11-07T02:26:38.693Z,3.2
2018-11-07T02:27:38.343Z,3.5
2018-11-07T02:28:38.218Z,3.1
2018-11-07T02:29:38.198Z,3.1
2018-11-07T02:30:39.297Z,3.1
2018-11-07T02:31:38.487Z,3.1
2018-11-07T02:32:38.267Z,3.2
2018-11-07T02:33:38.279Z,3.1
2018-11-07T02:34:38.491Z,3.3
2018-11-07T02:35:38.478Z,3.4
2018-11-07T02:36:38.483Z,3.4
2018-11-07T02:37:38.738Z,3.2
2018-11-07T02:38:38.249Z,3.1
2018-11-07T02:39:38.732Z,3.2
2018-11-07T02:40:38.784Z,3.5
2018-11-07T02:41:38.721Z,3.6
2018-11-07T02:42:38.346Z,3.5
2018-11-07T02:43:38.776Z,3.5
2018-11-07T02:44:38.739Z,3.4
2018-11-07T02:45:38.250Z,3.6
2018-11-07T02:46:38.682Z,3.4
2018-11-07T02:47:38.875Z,3.6
2018-11-07T02:48:38.789Z,3.6
2018-11-07T02:49:38.848Z,3.1
2018-11-07T02:50:38.771Z,3.5
2018-11-07T02:51:38.474Z,3.2
2018-11-07T02:52:38.313Z,3.5
2018-11-07T02:53:38.948Z,3.2
2018-11-07T02:54:38.384Z,2.9
2018-11-07T02:55:38.709Z,3.2
2018-11-07T02:56:38.527Z,3.7
2018-11-07T02:57:38.704Z,3.7
2018-11-07T02:58:38.846Z,3.4
2018-11-07T02:59:38.457Z,3.2
2018-11-07T03:00:38.820Z,3.6
2018-11-07T03:01:38.772Z,3.3
2018-11-07T03:02:38.297Z,3.4
2018-11-07T03:03:38.354Z,3.3
2018-11-07T03:04:38.317Z,3.3
2018-11-07T03:06:07.348Z,3.1
2018-11-07T03:06:38.554Z,3.2
2018-11-07T03:07:38.323Z,3.2
2018-11-07T03:08:38.567Z,3.1
2018-11-07T03:09:38.837Z,3.5
2018-11-07T03:10:38.897Z,3.3
2018-11-07T03:11:38.744Z,3.1
2018-11-07T03:12:38.785Z,3.4
2018-11-07T03:13:38.518Z,3.3
2018-11-07T03:14:38.569Z,3.5
2018-11-07T03:15:38.325Z,3.5
2018-11-07T03:16:38.530Z,3.3
2018-11-07T03:17:38.314Z,3.2
2018-11-07T03:18:38.537Z,3.2
2018-11-07T03:19:38.428Z,3.0
2018-11-07T03:20:38.308Z,3.2
2018-11-07T03:21:38.770Z,3.0
2018-11-07T03:22:38.800Z,3.2
2018-11-07T03:23:38.797Z,3.4
2018-11-07T03:24:38.837Z,3.2
2018-11-07T03:25:38.769Z,3.6
2018-11-07T03:26:38.557Z,3.5
2018-11-07T03:27:38.780Z,3.3
2018-11-07T03:28:38.321Z,3.4
2018-11-07T03:29:38.390Z,3.4
2018-11-07T03:30:38.559Z,3.1
2018-11-07T03:31:38.393Z,3.4
2018-11-07T03:32:38.884Z,3.0
2018-11-07T03:33:38.529Z,3.2
2018-11-07T03:34:38.856Z,3.2
2018-11-07T03:35:38.848Z,3.1
2018-11-07T03:36:38.833Z,3.0
2018-11-07T03:37:38.550Z,3.0
2018-11-07T03:38:38.560Z,3.0
2018-11-07T03:39:38.642Z,3.0
2018-11-07T03:40:38.385Z,3.0
2018-11-07T03:41:38.793Z,2.8
2018-11-07T03:42:38.895Z,3.1
2018-11-07T03:43:38.568Z,3.1
2018-11-07T03:44:38.648Z,2.8
2018-11-07T03:45:38.351Z,3.0
2018-11-07T03:46:38.798Z,2.8
2018-11-07T03:47:38.657Z,2.9
2018-11-07T03:48:38.377Z,2.9
2018-11-07T03:49:38.839Z,2.9
2018-11-07T03:50:38.848Z,2.9
2018-11-07T03:51:38.564Z,2.8
2018-11-07T03:52:38.572Z,3.0
2018-11-07T03:53:38.430Z,2.8
2018-11-07T03:54:40.813Z,2.9
2018-11-07T03:55:38.884Z,2.9
2018-11-07T03:56:38.636Z,2.7
2018-11-07T03:57:38.940Z,2.7
2018-11-07T03:58:38.898Z,2.5
2018-11-07T03:59:39.017Z,2.4
2018-11-07T04:00:38.657Z,2.7
2018-11-07T04:01:38.882Z,2.7
2018-11-07T04:02:38.852Z,2.6
2018-11-07T04:03:38.988Z,2.9
2018-11-07T04:04:38.868Z,2.6
2018-11-07T04:05:38.394Z,2.9
2018-11-07T04:06:38.934Z,2.6
2018-11-07T04:07:38.869Z,2.5
2018-11-07T04:08:38.949Z,2.6
2018-11-07T04:09:38.506Z,2.7
2018-11-07T04:10:38.607Z,2.6
2018-11-07T04:11:38.927Z,2.6
2018-11-07T04:12:38.838Z,2.4
2018-11-07T04:13:38.609Z,2.3
2018-11-07T04:14:38.852Z,2.8
2018-11-07T04:15:38.460Z,2.3
2018-11-07T04:16:38.994Z,2.2
2018-11-07T04:17:38.933Z,2.2
2018-11-07T04:18:38.933Z,2.3
2018-11-07T04:19:38.984Z,2.4
2018-11-07T04:20:38.648Z,2.2
2018-11-07T04:21:38.904Z,2.2
2018-11-07T04:32:28.784Z,2.2
2018-11-07T04:33:27.598Z,1.9
2018-11-07T04:34:27.213Z,2.0
2018-11-07T04:35:27.701Z,2.0
2018-11-07T04:36:27.573Z,1.9
2018-11-07T04:37:27.387Z,2.0
2018-11-07T04:38:27.388Z,2.1
2018-11-07T04:39:27.606Z,2.0
2018-11-07T04:40:27.412Z,1.9
2018-11-07T04:41:27.660Z,2.1
2018-11-07T04:42:43.608Z,2.0
2018-11-07T04:43:27.129Z,1.8
2018-11-07T04:44:27.368Z,1.7
2018-11-07T04:45:27.146Z,1.8
2018-11-07T04:46:27.446Z,1.9
2018-11-07T04:47:27.162Z,2.0
2018-11-07T04:48:27.185Z,1.9
2018-11-07T04:49:27.298Z,1.6
2018-11-07T04:50:27.726Z,1.9
2018-11-07T04:51:27.682Z,1.8
2018-11-07T04:53:27.677Z,1.9
2018-11-07T04:54:27.631Z,1.9
2018-11-07T04:55:27.698Z,1.8
2018-11-07T04:56:27.690Z,1.8
2018-11-07T04:57:27.158Z,2.0
2018-11-07T04:58:28.265Z,1.8
2018-11-07T04:59:27.665Z,2.0
2018-11-07T05:00:27.743Z,1.9
2018-11-07T05:01:27.559Z,1.8
2018-11-07T05:02:28.123Z,2.1
2018-11-07T05:03:27.210Z,2.0
2018-11-07T05:04:27.425Z,2.1
2018-11-07T05:05:27.680Z,1.9
2018-11-07T05:06:27.630Z,2.0
2018-11-07T05:07:27.314Z,1.9
2018-11-07T05:08:28.138Z,2.0
2018-11-07T05:09:27.349Z,2.0
2018-11-07T05:10:27.448Z,2.1
2018-11-07T05:11:27.201Z,1.9
2018-11-07T05:12:30.773Z,2.0
2018-11-07T05:13:27.382Z,1.9
2018-11-07T05:14:27.473Z,2.0
2018-11-07T05:15:27.271Z,2.1
2018-11-07T05:16:27.260Z,2.1
2018-11-07T05:17:27.639Z,2.3
2018-11-07T05:18:28.004Z,2.1
2018-11-07T05:19:27.759Z,2.3
2018-11-07T05:20:27.229Z,2.1
2018-11-07T05:21:27.269Z,2.1
2018-11-07T05:22:27.871Z,2.0
2018-11-07T05:24:40.738Z,2.0
2018-11-07T05:25:40.652Z,2.1
2018-11-07T05:26:40.413Z,2.3
2018-11-07T05:27:40.221Z,2.4
2018-11-07T05:28:40.281Z,2.1
2018-11-07T05:29:40.409Z,2.3
2018-11-07T05:30:40.382Z,2.2
2018-11-07T05:31:40.813Z,2.1
2018-11-07T05:32:40.652Z,2.2
2018-11-07T05:33:40.419Z,2.7
2018-11-07T05:34:50.948Z,2.0
2018-11-07T05:35:40.773Z,2.2
2018-11-07T05:36:40.237Z,2.0
2018-11-07T05:37:40.735Z,2.1
2018-11-07T05:38:40.459Z,2.2
2018-11-07T05:39:40.757Z,2.2
2018-11-07T05:40:40.676Z,2.2
2018-11-07T05:41:40.506Z,2.2
2018-11-07T05:42:40.409Z,2.2
2018-11-07T05:43:40.684Z,2.0
2018-11-07T05:44:40.755Z,2.2
2018-11-07T05:45:40.732Z,2.2
2018-11-07T05:46:40.655Z,2.3
2018-11-07T05:47:40.657Z,2.2
2018-11-07T05:48:40.652Z,2.1
2018-11-07T05:49:40.768Z,2.0
2018-11-07T05:50:40.764Z,1.9
2018-11-07T05:51:40.698Z,2.1
2018-11-07T05:52:40.930Z,2.1
2018-11-07T05:53:40.228Z,2.1
2018-11-07T05:54:40.487Z,2.1
2018-11-07T05:55:40.760Z,2.1
2018-11-07T05:56:40.807Z,1.9
2018-11-07T05:57:40.357Z,2.1
2018-11-07T05:58:40.786Z,2.1
2018-11-07T05:59:40.878Z,1.8
2018-11-07T06:00:40.724Z,1.9
2018-11-07T06:01:40.328Z,2.0
2018-11-07T06:03:30.096Z,1.9
2018-11-07T06:03:40.690Z,2.0
2018-11-07T06:04:40.480Z,2.0
2018-11-07T06:05:40.826Z,1.9
2018-11-07T06:06:40.765Z,2.0
2018-11-07T06:07:40.529Z,2.0
2018-11-07T06:08:40.548Z,2.2
2018-11-07T06:09:40.362Z,2.1
2018-11-07T06:10:40.739Z,2.0
2018-11-07T06:11:40.768Z,2.2
2018-11-07T06:12:40.784Z,1.9
2018-11-07T06:13:40.593Z,1.8
2018-11-07T06:14:40.428Z,2.1
2018-11-07T06:15:40.784Z,2.0
2018-11-07T06:16:40.815Z,1.9
2018-11-07T06:17:40.493Z,1.9
2018-11-07T06:18:40.732Z,2.0
2018-11-07T06:19:40.708Z,1.9
2018-11-07T06:20:41.196Z,2.0
2018-11-07T06:21:41.887Z,2.0
2018-11-07T06:22:40.722Z,4.8
2018-11-07T06:23:40.522Z,3.8
2018-11-07T06:24:40.358Z,4.1
2018-11-07T06:25:40.858Z,3.6
2018-11-07T06:26:40.501Z,2.6
2018-11-07T06:27:40.764Z,3.7
2018-11-07T06:28:40.716Z,3.7
2018-11-07T06:29:41.420Z,2.6
2018-11-07T06:30:41.150Z,3.1
2018-11-07T06:31:40.330Z,4.4
2018-11-07T06:32:40.611Z,4.0
2018-11-07T06:33:40.417Z,2.5
2018-11-07T06:34:41.186Z,2.9
2018-11-07T06:35:40.527Z,3.1
2018-11-07T06:36:40.891Z,3.2
2018-11-07T06:37:41.758Z,3.5
2018-11-07T06:38:40.811Z,5.0
2018-11-07T06:39:40.394Z,3.2
2018-11-07T06:40:40.785Z,3.7
2018-11-07T06:41:40.754Z,2.8
2018-11-07T06:42:40.858Z,3.1
2018-11-07T06:43:40.794Z,4.0
2018-11-07T06:44:40.625Z,2.5
2018-11-07T06:45:40.802Z,2.4
2018-11-07T06:46:40.611Z,3.9
2018-11-07T06:47:40.867Z,3.6
2018-11-07T06:48:40.595Z,2.6
2018-11-07T06:49:40.585Z,2.7
2018-11-07T06:50:40.768Z,2.9
2018-11-07T06:51:40.566Z,3.2
2018-11-07T06:52:40.950Z,3.0
2018-11-07T06:53:40.544Z,4.7
2018-11-07T06:54:40.904Z,2.9
2018-11-07T06:55:40.603Z,3.7
2018-11-07T06:56:41.525Z,3.6
2018-11-07T06:57:40.943Z,2.6
2018-11-07T06:58:40.374Z,2.7
2018-11-07T06:59:40.610Z,2.9
2018-11-07T07:00:40.656Z,2.7
2018-11-07T07:01:40.401Z,2.5
2018-11-07T07:02:40.661Z,2.8
2018-11-07T07:03:40.423Z,2.6
2018-11-07T07:04:40.922Z,2.3
2018-11-07T07:05:40.658Z,2.3
2018-11-07T07:06:41.083Z,2.4
2018-11-07T07:07:40.877Z,2.2
2018-11-07T07:08:41.113Z,3.3
2018-11-07T07:09:40.912Z,2.5
2018-11-07T07:10:40.953Z,3.6
2018-11-07T07:11:40.578Z,2.9
2018-11-07T07:12:41.292Z,2.9
2018-11-07T07:13:40.994Z,2.8
2018-11-07T07:14:40.934Z,2.7
2018-11-07T07:15:40.403Z,3.0
2018-11-07T07:16:41.394Z,2.5
2018-11-07T07:17:40.855Z,3.5
2018-11-07T07:18:40.985Z,3.2
2018-11-07T07:19:40.888Z,2.5
2018-11-07T07:20:40.673Z,2.4
2018-11-07T07:21:40.449Z,2.4
2018-11-07T07:22:40.491Z,3.9
2018-11-07T07:23:40.563Z,2.5
2018-11-07T07:24:41.020Z,2.5
2018-11-07T07:25:40.566Z,2.4
2018-11-07T07:26:40.599Z,3.5
2018-11-07T07:27:40.463Z,4.0
2018-11-07T07:28:40.995Z,3.9
2018-11-07T07:29:40.613Z,2.6
2018-11-07T07:30:40.523Z,2.5
2018-11-07T07:31:40.897Z,2.5
2018-11-07T07:32:43.451Z,2.9
2018-11-07T07:33:42.310Z,3.0
2018-11-07T07:34:40.924Z,2.3
2018-11-07T07:36:09.046Z,2.8
2018-11-07T07:36:40.788Z,2.4
2018-11-07T07:37:40.692Z,2.8
2018-11-07T07:38:40.726Z,2.8
2018-11-07T07:39:40.461Z,2.5
2018-11-07T07:40:40.637Z,2.6
2018-11-07T07:41:40.678Z,2.5
2018-11-07T07:42:40.925Z,2.5
2018-11-07T07:43:40.936Z,3.1
2018-11-07T07:44:40.665Z,2.4
2018-11-07T07:45:41.082Z,2.4
2018-11-07T07:46:41.031Z,3.2
2018-11-07T07:47:40.739Z,2.5
2018-11-07T07:48:41.013Z,2.3
2018-11-07T07:49:40.445Z,3.0
2018-11-07T07:50:40.707Z,3.3
2018-11-07T07:51:40.720Z,2.3
2018-11-07T07:52:41.016Z,3.6
2018-11-07T07:53:40.934Z,2.5
2018-11-07T07:54:40.712Z,2.8
2018-11-07T07:55:40.747Z,3.5
2018-11-07T07:56:40.524Z,2.9
2018-11-07T07:57:40.988Z,2.5
2018-11-07T07:58:41.043Z,2.6
2018-11-07T07:59:40.572Z,3.4
2018-11-07T08:00:40.567Z,3.3
2018-11-07T08:01:40.559Z,2.6
2018-11-07T08:02:40.713Z,2.3
2018-11-07T08:03:53.030Z,2.8
2018-11-07T08:04:40.538Z,3.3
2018-11-07T08:05:40.955Z,2.5
2018-11-07T08:06:40.990Z,2.5
2018-11-07T08:07:40.533Z,2.8
2018-11-07T08:08:40.964Z,2.8
2018-11-07T08:09:41.138Z,2.5
2018-11-07T08:10:40.532Z,2.8
2018-11-07T08:11:40.989Z,3.3
2018-11-07T08:12:40.516Z,3.2
2018-11-07T08:13:41.551Z,2.6
2018-11-07T08:14:40.518Z,3.2
2018-11-07T08:15:41.065Z,2.4
2018-11-07T08:16:40.830Z,4.9
2018-11-07T08:17:40.505Z,3.0
2018-11-07T08:18:40.791Z,4.1
2018-11-07T08:19:41.000Z,2.7
2018-11-07T08:20:40.989Z,3.5
2018-11-07T08:21:40.563Z,3.4
2018-11-07T08:22:40.818Z,3.9
2018-11-07T08:23:42.637Z,3.2
2018-11-07T08:24:41.071Z,2.8
2018-11-07T08:26:40.734Z,3.5
2018-11-07T08:27:42.730Z,5.1
2018-11-07T08:28:41.072Z,3.2
2018-11-07T08:29:41.615Z,4.0
2018-11-07T08:30:42.323Z,5.4
2018-11-07T08:31:41.268Z,4.4
2018-11-07T08:32:40.828Z,6.0
2018-11-07T08:33:41.103Z,11.6
2018-11-07T08:34:41.134Z,21.4
2018-11-07T08:35:41.098Z,16.7
2018-11-07T08:36:40.635Z,14.5
2018-11-07T08:37:40.791Z,15.2
2018-11-07T08:38:40.990Z,16.3
2018-11-07T08:39:41.031Z,14.8
2018-11-07T08:40:41.598Z,15.6
2018-11-07T08:41:45.090Z,17.2
2018-11-07T08:42:40.588Z,12.2
2018-11-07T08:43:40.624Z,13.2
2018-11-07T08:44:41.071Z,11.4
2018-11-07T08:45:41.033Z,13.4
2018-11-07T08:46:40.834Z,11.3
2018-11-07T08:47:41.097Z,12.5
2018-11-07T08:48:40.808Z,11.1
2018-11-07T08:49:40.623Z,10.6
2018-11-07T08:50:41.151Z,11.3
2018-11-07T08:51:41.028Z,10.8
2018-11-07T08:52:41.106Z,10.0
2018-11-07T08:53:41.061Z,10.9
2018-11-07T08:54:40.772Z,11.2
2018-11-07T08:55:41.073Z,13.0
2018-11-07T08:56:41.147Z,10.2
2018-11-07T08:57:41.117Z,11.3
2018-11-07T08:58:40.651Z,9.8
2018-11-07T08:59:40.848Z,10.5
2018-11-07T09:00:41.186Z,9.3
2018-11-07T09:02:40.872Z,9.5
2018-11-07T09:03:40.892Z,10.5
2018-11-07T09:04:40.869Z,9.7
2018-11-07T09:05:40.820Z,9.5
2018-11-07T09:06:41.182Z,9.3
2018-11-07T09:07:40.678Z,9.6
2018-11-07T09:08:41.142Z,9.5
2018-11-07T09:09:40.637Z,8.8
2018-11-07T09:10:41.169Z,8.9
2018-11-07T09:11:41.214Z,9.5
2018-11-07T09:12:40.877Z,9.0
2018-11-07T09:13:40.855Z,8.6
2018-11-07T09:14:41.182Z,8.5
2018-11-07T09:15:41.156Z,8.4
2018-11-07T09:16:41.035Z,10.2
2018-11-07T09:17:41.181Z,8.3
2018-11-07T09:18:41.220Z,8.4
2018-11-07T09:19:41.480Z,8.4
2018-11-07T09:20:41.150Z,8.1
2018-11-07T09:21:40.883Z,8.5
2018-11-07T09:22:41.118Z,8.7
2018-11-07T09:23:40.787Z,8.0
2018-11-07T09:24:40.725Z,8.4
2018-11-07T09:25:40.669Z,8.5
2018-11-07T09:26:41.176Z,7.7
2018-11-07T09:27:40.916Z,8.0
2018-11-07T09:28:40.745Z,8.2
2018-11-07T09:37:51.301Z,8.0
2018-11-07T09:38:04.072Z,7.0
2018-11-07T09:39:05.318Z,7.8
2018-11-07T09:40:05.167Z,7.5
2018-11-07T09:41:05.052Z,7.3
2018-11-07T09:42:05.016Z,7.3
2018-11-07T09:43:05.520Z,7.2
2018-11-07T09:44:05.491Z,7.3
2018-11-07T09:45:05.288Z,7.5
2018-11-07T09:46:05.069Z,7.6
2018-11-07T09:47:05.575Z,6.8
2018-11-07T09:48:05.221Z,7.5
2018-11-07T09:49:05.252Z,7.3
2018-11-07T09:50:05.095Z,6.8
2018-11-07T09:51:05.270Z,7.0
2018-11-07T09:52:05.152Z,7.4
2018-11-07T09:53:05.075Z,7.3
2018-11-07T09:54:05.690Z,7.2
2018-11-07T09:55:06.112Z,7.3
2018-11-07T09:56:05.138Z,6.7
2018-11-07T09:57:05.585Z,6.7
2018-11-07T09:58:05.100Z,6.7
2018-11-07T09:59:05.588Z,6.6
2018-11-07T10:00:05.633Z,7.0
2018-11-07T10:01:05.535Z,6.9
2018-11-07T10:02:05.319Z,6.7
2018-11-07T10:03:05.166Z,6.5
2018-11-07T10:04:05.620Z,6.9
2018-11-07T10:05:33.832Z,6.3
2018-11-07T10:06:05.383Z,6.6
2018-11-07T10:07:05.075Z,6.7
2018-11-07T10:08:05.553Z,6.8
2018-11-07T10:09:05.556Z,6.5
2018-11-07T10:10:05.459Z,6.6
2018-11-07T10:11:05.325Z,7.0
2018-11-07T10:12:05.118Z,6.8
2018-11-07T10:13:05.353Z,6.1
2018-11-07T10:14:05.136Z,6.5
2018-11-07T10:15:05.577Z,6.5
2018-11-07T10:17:17.897Z,6.5
2018-11-07T10:18:18.105Z,5.9
2018-11-07T10:19:18.173Z,6.2
2018-11-07T10:20:18.351Z,6.4
2018-11-07T10:21:17.968Z,6.3
2018-11-07T10:22:18.134Z,6.2
2018-11-07T10:23:17.877Z,6.0
2018-11-07T10:24:17.837Z,5.9
2018-11-07T10:25:18.349Z,5.9
2018-11-07T10:26:18.232Z,5.9
2018-11-07T10:27:18.095Z,6.2
2018-11-07T10:28:18.276Z,5.9
2018-11-07T10:29:18.410Z,5.7
2018-11-07T10:30:19.177Z,5.8
2018-11-07T10:31:17.941Z,6.2
2018-11-07T10:32:17.767Z,5.8
2018-11-07T10:33:17.679Z,5.7
2018-11-07T10:34:18.185Z,5.9
2018-11-07T10:35:17.727Z,5.9
2018-11-07T10:36:18.266Z,5.8
2018-11-07T10:37:17.929Z,5.8
2018-11-07T10:38:18.305Z,5.8
2018-11-07T10:39:18.120Z,5.6
2018-11-07T10:40:18.254Z,5.3
2018-11-07T10:41:18.232Z,5.6
2018-11-07T10:42:18.189Z,5.7
2018-11-07T10:43:17.921Z,5.7
2018-11-07T10:44:18.142Z,5.6
2018-11-07T10:45:18.627Z,5.4
2018-11-07T10:46:17.687Z,5.7
2018-11-07T10:47:17.915Z,5.7
2018-11-07T10:48:17.777Z,5.6
2018-11-07T10:49:18.146Z,5.4
2018-11-07T10:50:17.973Z,5.4
2018-11-07T10:51:18.327Z,5.1
2018-11-07T10:52:17.753Z,5.6
2018-11-07T10:53:17.744Z,5.3
2018-11-07T10:54:17.739Z,5.2
2018-11-07T10:55:18.292Z,5.2
2018-11-07T10:56:17.961Z,5.4
2018-11-07T10:57:18.123Z,5.2
2018-11-07T10:58:18.275Z,4.9
2018-11-07T10:59:17.932Z,5.2
2018-11-07T11:00:18.239Z,4.9
2018-11-07T11:01:17.938Z,5.2
2018-11-07T11:02:18.178Z,5.0
2018-11-07T11:09:50.805Z,4.9
2018-11-07T11:10:00.073Z,4.8
2018-11-07T11:11:00.191Z,5.1
2018-11-07T11:12:00.031Z,4.7
2018-11-07T11:12:59.804Z,4.7
2018-11-07T11:14:00.009Z,4.9
2018-11-07T11:15:00.054Z,4.8
2018-11-07T11:15:59.809Z,4.8
2018-11-07T11:16:59.691Z,4.8
2018-11-07T11:17:59.531Z,4.9
2018-11-07T11:18:59.831Z,5.0
2018-11-07T11:19:59.793Z,4.5
2018-11-07T11:20:59.808Z,4.7
2018-11-07T11:22:00.017Z,4.6
2018-11-07T11:23:00.067Z,4.8
2018-11-07T11:23:59.597Z,4.4
2018-11-07T11:25:00.156Z,5.0
2018-11-07T11:25:59.704Z,4.1
2018-11-07T11:36:47.256Z,4.7
2018-11-07T11:36:55.510Z,4.7
2018-11-07T11:37:55.420Z,4.5
2018-11-07T11:38:55.384Z,4.1
2018-11-07T11:39:55.467Z,4.1
2018-11-07T11:40:55.335Z,4.5
2018-11-07T11:41:55.513Z,4.5
2018-11-07T11:42:55.172Z,4.3
2018-11-07T11:43:55.494Z,4.6
2018-11-07T11:44:55.440Z,4.2
2018-11-07T11:45:55.017Z,4.3
2018-11-07T11:46:55.398Z,4.3
2018-11-07T11:47:55.507Z,4.2
2018-11-07T11:48:55.547Z,4.0
2018-11-07T11:49:55.454Z,4.1
2018-11-07T11:50:55.420Z,4.1
2018-11-07T11:51:55.537Z,4.3
2018-11-07T11:52:55.143Z,4.1
2018-11-07T11:53:55.725Z,4.0
2018-11-07T11:54:55.500Z,4.3
2018-11-07T11:55:55.469Z,4.0
2018-11-07T11:56:55.071Z,4.1
2018-11-07T11:57:55.235Z,4.0
2018-11-07T11:58:55.393Z,4.0
2018-11-07T11:59:55.834Z,4.1
2018-11-07T12:00:55.480Z,4.0
2018-11-07T12:01:55.035Z,4.0
2018-11-07T12:02:55.076Z,3.7
2018-11-07T12:03:55.509Z,4.2
2018-11-07T12:04:55.472Z,3.9
2018-11-07T12:05:55.484Z,3.7
2018-11-07T12:06:55.003Z,3.9
2018-11-07T12:07:55.246Z,3.8
2018-11-07T12:08:55.104Z,3.9
2018-11-07T12:09:55.520Z,3.8
2018-11-07T12:10:55.232Z,4.7
2018-11-07T12:11:55.237Z,3.8
2018-11-07T12:12:56.337Z,3.9
2018-11-07T12:13:55.243Z,4.0
2018-11-07T12:14:55.278Z,4.2
2018-11-07T12:15:55.057Z,4.2
2018-11-07T12:16:55.567Z,4.1
2018-11-07T12:17:55.659Z,12.6
2018-11-07T12:18:55.262Z,18.2
2018-11-07T12:19:55.598Z,13.7
2018-11-07T12:20:55.633Z,12.8
2018-11-07T12:21:55.604Z,10.5
2018-11-07T12:22:55.308Z,10.9
2018-11-07T12:23:55.656Z,11.1
2018-11-07T12:24:55.595Z,8.3
2018-11-07T12:25:55.492Z,10.8
2018-11-07T12:26:55.430Z,10.2
2018-11-07T12:27:55.316Z,8.4
2018-11-07T12:28:55.135Z,7.2
2018-11-07T12:29:55.499Z,9.2
2018-11-07T12:30:55.284Z,8.5
2018-11-07T12:31:55.240Z,4.8
2018-11-07T12:32:55.598Z,5.1
2018-11-07T12:33:57.169Z,7.7
2018-11-07T12:35:55.616Z,21.9
2018-11-07T12:36:55.389Z,15.2
2018-11-07T12:37:55.563Z,15.1
2018-11-07T12:38:55.273Z,7.3
2018-11-07T12:39:57.751Z,10.7
2018-11-07T12:40:55.562Z,8.5
2018-11-07T12:41:56.663Z,9.2
2018-11-07T12:42:55.986Z,7.5
2018-11-07T12:44:55.120Z,8.1
2018-11-07T12:45:55.683Z,4.9
2018-11-07T12:46:56.291Z,5.5
2018-11-07T12:47:56.179Z,5.4
2018-11-07T12:48:55.506Z,2.6
2018-11-07T12:49:55.810Z,4.6
2018-11-07T12:51:14.563Z,3.0
2018-11-07T12:52:17.495Z,4.9
2018-11-07T12:52:55.666Z,3.9
2018-11-07T12:53:58.231Z,4.0
2018-11-07T12:54:56.168Z,4.6
2018-11-07T12:55:55.745Z,5.0
2018-11-07T12:56:56.764Z,4.4
2018-11-07T13:07:52.790Z,3.8
2018-11-07T13:08:53.857Z,4.3
2018-11-07T13:09:54.493Z,5.7
2018-11-07T13:10:53.497Z,5.3
2018-11-07T13:11:58.517Z,4.9
2018-11-07T13:12:53.267Z,3.6
2018-11-07T13:13:54.532Z,6.4
2018-11-07T13:14:55.242Z,6.7
2018-11-07T13:15:53.598Z,5.0
2018-11-07T13:18:06.169Z,6.1
2018-11-07T13:19:07.381Z,6.3
2018-11-07T13:20:06.657Z,4.9
2018-11-07T13:21:05.841Z,4.6
2018-11-07T13:22:06.220Z,3.4
2018-11-07T13:23:07.000Z,5.0
2018-11-07T13:24:28.435Z,5.8
2018-11-07T13:25:20.389Z,4.0
2018-11-07T13:26:24.671Z,4.4
2018-11-07T13:27:11.026Z,5.2
2018-11-07T13:28:15.138Z,4.1
2018-11-07T13:29:16.029Z,5.4
2018-11-07T13:30:10.461Z,4.8
2018-11-07T13:32:39.429Z,3.8
2018-11-07T13:34:16.818Z,4.2
2018-11-07T13:36:07.979Z,4.1
2018-11-07T13:37:07.574Z,4.5
2018-11-07T13:40:21.564Z,3.7
2018-11-07T13:40:30.477Z,3.3
2018-11-07T13:41:40.538Z,4.5
2018-11-07T13:43:36.189Z,4.4
2018-11-07T13:44:30.665Z,7.6
2018-11-07T13:45:30.795Z,5.0
2018-11-07T13:46:31.928Z,7.1
2018-11-07T13:47:30.721Z,3.9
2018-11-07T13:48:31.456Z,5.6
2018-11-07T13:49:34.490Z,4.5
2018-11-07T13:51:31.266Z,5.1
2018-11-07T13:52:30.605Z,3.6
2018-11-07T13:53:31.038Z,6.5
2018-11-07T13:54:30.931Z,5.4
2018-11-07T13:55:31.163Z,4.2
2018-11-07T13:56:30.657Z,5.2
2018-11-07T13:57:31.263Z,4.2
2018-11-07T13:58:30.536Z,4.1
2018-11-07T13:59:31.023Z,4.3
2018-11-07T14:00:31.113Z,5.1
2018-11-07T14:01:31.677Z,3.4
2018-11-07T14:02:32.357Z,3.1
2018-11-07T14:03:31.045Z,3.0
2018-11-07T14:04:30.718Z,6.7
2018-11-07T14:05:30.638Z,2.5
2018-11-07T14:06:31.021Z,2.7
2018-11-07T14:07:30.500Z,2.2
2018-11-07T14:08:30.743Z,2.5
2018-11-07T14:09:30.759Z,3.0
2018-11-07T14:10:30.687Z,2.3
2018-11-07T14:11:30.838Z,2.4
2018-11-07T14:12:32.119Z,2.5
2018-11-07T14:13:31.298Z,3.7
2018-11-07T14:14:31.533Z,3.2
2018-11-07T14:15:30.984Z,3.0
2018-11-07T14:16:32.219Z,3.4
2018-11-07T14:17:30.541Z,2.8
2018-11-07T14:18:30.527Z,2.4
2018-11-07T14:19:30.969Z,2.3
2018-11-07T14:20:31.148Z,3.3
2018-11-07T14:21:30.481Z,2.1
2018-11-07T14:22:32.299Z,2.2
2018-11-07T14:23:31.576Z,3.4
2018-11-07T14:24:31.366Z,2.3
2018-11-07T14:25:31.124Z,2.4
2018-11-07T14:26:31.720Z,3.3
2018-11-07T14:27:31.196Z,2.1
2018-11-07T14:28:33.671Z,2.0
2018-11-07T14:29:31.426Z,3.1
2018-11-07T14:30:30.710Z,2.6
2018-11-07T14:31:30.874Z,2.3
2018-11-07T14:32:31.002Z,2.4
2018-11-07T14:33:31.714Z,2.4
2018-11-07T14:35:31.039Z,2.2
2018-11-07T14:37:24.517Z,3.2
2018-11-07T14:37:33.533Z,2.1
2018-11-07T14:38:33.048Z,2.0
2018-11-07T14:39:32.829Z,2.8
2018-11-07T14:40:32.801Z,2.6
2018-11-07T14:41:32.927Z,2.4
2018-11-07T14:45:32.395Z,2.3